sensor_id;sensor_type;location;lat;lon;timestamp;P1;durP1;ratioP1;P2;durP2;ratioP2
34711;SDS011;20941;42.408;25.634;2024-01-27T00:00:04;9.05;;;2.67;;
34711;SDS011;20941;42.408;25.634;2024-01-27T00:02:29;7.88;;;3.08;;
34711;SDS011;20941;42.408;25.634;2024-01-27T00:04:55;5.43;;;2.60;;
34711;SDS011;20941;42.408;25.634;2024-01-27T00:07:20;3.65;;;2.28;;
34711;SDS011;20941;42.408;25.634;2024-01-27T00:09:45;2.38;;;2.17;;
34711;SDS011;20941;42.408;25.634;2024-01-27T00:12:11;5.65;;;2.60;;
34711;SDS011;20941;42.408;25.634;2024-01-27T00:14:40;5.18;;;2.72;;
34711;SDS011;20941;42.408;25.634;2024-01-27T00:17:05;5.68;;;2.80;;
34711;SDS011;20941;42.408;25.634;2024-01-27T00:19:31;5.05;;;2.60;;
34711;SDS011;20941;42.408;25.634;2024-01-27T00:21:56;4.00;;;2.30;;
34711;SDS011;20941;42.408;25.634;2024-01-27T00:24:21;4.20;;;2.25;;
34711;SDS011;20941;42.408;25.634;2024-01-27T00:26:47;4.43;;;1.85;;
34711;SDS011;20941;42.408;25.634;2024-01-27T00:29:12;4.00;;;1.48;;
34711;SDS011;20941;42.408;25.634;2024-01-27T00:31:38;1.65;;;1.55;;
34711;SDS011;20941;42.408;25.634;2024-01-27T00:34:03;4.95;;;2.80;;
34711;SDS011;20941;42.408;25.634;2024-01-27T00:36:29;2.47;;;2.05;;
34711;SDS011;20941;42.408;25.634;2024-01-27T00:38:54;3.47;;;2.17;;
34711;SDS011;20941;42.408;25.634;2024-01-27T00:41:20;4.22;;;2.38;;
34711;SDS011;20941;42.408;25.634;2024-01-27T00:43:45;7.03;;;3.15;;
34711;SDS011;20941;42.408;25.634;2024-01-27T00:46:11;2.65;;;2.42;;
34711;SDS011;20941;42.408;25.634;2024-01-27T00:48:36;4.07;;;2.50;;
34711;SDS011;20941;42.408;25.634;2024-01-27T00:51:01;5.20;;;2.75;;
34711;SDS011;20941;42.408;25.634;2024-01-27T00:53:27;6.00;;;1.88;;
34711;SDS011;20941;42.408;25.634;2024-01-27T00:55:52;5.30;;;2.38;;
34711;SDS011;20941;42.408;25.634;2024-01-27T00:58:18;4.13;;;2.60;;
34711;SDS011;20941;42.408;25.634;2024-01-27T01:00:43;5.15;;;2.85;;
34711;SDS011;20941;42.408;25.634;2024-01-27T01:03:08;8.45;;;2.85;;
34711;SDS011;20941;42.408;25.634;2024-01-27T01:05:34;4.70;;;2.80;;
34711;SDS011;20941;42.408;25.634;2024-01-27T01:07:59;5.18;;;3.20;;
34711;SDS011;20941;42.408;25.634;2024-01-27T01:10:24;4.45;;;3.00;;
34711;SDS011;20941;42.408;25.634;2024-01-27T01:12:50;5.88;;;2.95;;
34711;SDS011;20941;42.408;25.634;2024-01-27T01:15:15;6.75;;;3.35;;
34711;SDS011;20941;42.408;25.634;2024-01-27T01:17:41;4.57;;;2.97;;
34711;SDS011;20941;42.408;25.634;2024-01-27T01:20:07;6.60;;;3.00;;
34711;SDS011;20941;42.408;25.634;2024-01-27T01:22:32;7.30;;;3.30;;
34711;SDS011;20941;42.408;25.634;2024-01-27T01:24:58;6.03;;;3.30;;
34711;SDS011;20941;42.408;25.634;2024-01-27T01:27:23;5.65;;;3.30;;
34711;SDS011;20941;42.408;25.634;2024-01-27T01:29:49;7.18;;;3.67;;
34711;SDS011;20941;42.408;25.634;2024-01-27T01:32:14;6.07;;;3.22;;
34711;SDS011;20941;42.408;25.634;2024-01-27T01:34:40;5.03;;;3.10;;
34711;SDS011;20941;42.408;25.634;2024-01-27T01:37:05;5.38;;;2.78;;
34711;SDS011;20941;42.408;25.634;2024-01-27T01:39:31;4.80;;;3.28;;
34711;SDS011;20941;42.408;25.634;2024-01-27T01:41:57;6.35;;;2.95;;
34711;SDS011;20941;42.408;25.634;2024-01-27T01:44:22;8.70;;;3.17;;
34711;SDS011;20941;42.408;25.634;2024-01-27T01:46:49;6.07;;;3.20;;
34711;SDS011;20941;42.408;25.634;2024-01-27T01:49:14;4.85;;;2.97;;
34711;SDS011;20941;42.408;25.634;2024-01-27T01:51:39;4.63;;;2.58;;
34711;SDS011;20941;42.408;25.634;2024-01-27T01:54:05;4.47;;;2.25;;
34711;SDS011;20941;42.408;25.634;2024-01-27T01:56:31;9.15;;;3.58;;
34711;SDS011;20941;42.408;25.634;2024-01-27T01:58:57;5.85;;;3.40;;
34711;SDS011;20941;42.408;25.634;2024-01-27T02:01:22;8.13;;;3.25;;
34711;SDS011;20941;42.408;25.634;2024-01-27T02:03:54;11.48;;;3.30;;
34711;SDS011;20941;42.408;25.634;2024-01-27T02:06:20;9.18;;;3.00;;
34711;SDS011;20941;42.408;25.634;2024-01-27T02:08:45;5.97;;;3.35;;
34711;SDS011;20941;42.408;25.634;2024-01-27T02:11:11;8.38;;;3.15;;
34711;SDS011;20941;42.408;25.634;2024-01-27T02:13:36;6.35;;;3.25;;
34711;SDS011;20941;42.408;25.634;2024-01-27T02:16:01;5.00;;;3.08;;
34711;SDS011;20941;42.408;25.634;2024-01-27T02:18:27;6.28;;;3.17;;
34711;SDS011;20941;42.408;25.634;2024-01-27T02:20:52;6.15;;;3.28;;
34711;SDS011;20941;42.408;25.634;2024-01-27T02:23:18;7.90;;;3.88;;
34711;SDS011;20941;42.408;25.634;2024-01-27T02:25:43;7.10;;;3.88;;
34711;SDS011;20941;42.408;25.634;2024-01-27T02:28:08;8.35;;;3.35;;
34711;SDS011;20941;42.408;25.634;2024-01-27T02:30:34;8.63;;;3.58;;
34711;SDS011;20941;42.408;25.634;2024-01-27T02:32:59;4.95;;;3.70;;
34711;SDS011;20941;42.408;25.634;2024-01-27T02:35:25;6.65;;;3.95;;
34711;SDS011;20941;42.408;25.634;2024-01-27T02:37:50;17.77;;;6.38;;
34711;SDS011;20941;42.408;25.634;2024-01-27T02:40:16;11.98;;;6.38;;
34711;SDS011;20941;42.408;25.634;2024-01-27T02:42:41;8.23;;;4.40;;
34711;SDS011;20941;42.408;25.634;2024-01-27T02:45:07;12.93;;;4.40;;
34711;SDS011;20941;42.408;25.634;2024-01-27T02:47:33;7.90;;;3.80;;
34711;SDS011;20941;42.408;25.634;2024-01-27T02:49:58;5.82;;;3.30;;
34711;SDS011;20941;42.408;25.634;2024-01-27T02:52:24;8.45;;;3.53;;
34711;SDS011;20941;42.408;25.634;2024-01-27T02:54:49;4.63;;;3.00;;
34711;SDS011;20941;42.408;25.634;2024-01-27T02:57:15;5.25;;;2.45;;
34711;SDS011;20941;42.408;25.634;2024-01-27T02:59:47;3.20;;;2.38;;
34711;SDS011;20941;42.408;25.634;2024-01-27T03:02:12;4.30;;;2.83;;
34711;SDS011;20941;42.408;25.634;2024-01-27T03:04:38;4.30;;;2.90;;
34711;SDS011;20941;42.408;25.634;2024-01-27T03:07:03;3.08;;;2.53;;
34711;SDS011;20941;42.408;25.634;2024-01-27T03:09:30;2.67;;;2.22;;
34711;SDS011;20941;42.408;25.634;2024-01-27T03:11:55;3.33;;;2.60;;
34711;SDS011;20941;42.408;25.634;2024-01-27T03:14:21;5.65;;;2.38;;
34711;SDS011;20941;42.408;25.634;2024-01-27T03:16:46;6.15;;;2.92;;
34711;SDS011;20941;42.408;25.634;2024-01-27T03:19:12;9.05;;;3.05;;
34711;SDS011;20941;42.408;25.634;2024-01-27T03:21:37;6.53;;;3.00;;
34711;SDS011;20941;42.408;25.634;2024-01-27T03:24:03;5.13;;;2.67;;
34711;SDS011;20941;42.408;25.634;2024-01-27T03:26:28;6.82;;;3.83;;
34711;SDS011;20941;42.408;25.634;2024-01-27T03:28:54;7.43;;;3.50;;
34711;SDS011;20941;42.408;25.634;2024-01-27T03:31:19;7.97;;;3.45;;
34711;SDS011;20941;42.408;25.634;2024-01-27T03:33:44;6.07;;;3.50;;
34711;SDS011;20941;42.408;25.634;2024-01-27T03:36:10;3.47;;;2.60;;
34711;SDS011;20941;42.408;25.634;2024-01-27T03:38:36;7.57;;;2.92;;
34711;SDS011;20941;42.408;25.634;2024-01-27T03:41:02;8.40;;;3.55;;
34711;SDS011;20941;42.408;25.634;2024-01-27T03:43:27;7.30;;;3.10;;
34711;SDS011;20941;42.408;25.634;2024-01-27T03:45:53;5.70;;;2.95;;
34711;SDS011;20941;42.408;25.634;2024-01-27T03:48:19;6.65;;;3.17;;
34711;SDS011;20941;42.408;25.634;2024-01-27T03:50:44;6.55;;;3.03;;
34711;SDS011;20941;42.408;25.634;2024-01-27T03:53:10;5.30;;;2.83;;
34711;SDS011;20941;42.408;25.634;2024-01-27T03:55:35;6.38;;;3.30;;
34711;SDS011;20941;42.408;25.634;2024-01-27T03:58:00;8.70;;;3.20;;
34711;SDS011;20941;42.408;25.634;2024-01-27T04:00:26;10.32;;;3.85;;
34711;SDS011;20941;42.408;25.634;2024-01-27T04:02:52;7.72;;;3.58;;
34711;SDS011;20941;42.408;25.634;2024-01-27T04:05:18;5.72;;;3.35;;
34711;SDS011;20941;42.408;25.634;2024-01-27T04:07:43;4.93;;;3.20;;
34711;SDS011;20941;42.408;25.634;2024-01-27T04:10:09;12.13;;;3.58;;
34711;SDS011;20941;42.408;25.634;2024-01-27T04:12:34;11.55;;;3.83;;
34711;SDS011;20941;42.408;25.634;2024-01-27T04:15:00;9.18;;;3.65;;
34711;SDS011;20941;42.408;25.634;2024-01-27T04:17:25;11.40;;;3.85;;
34711;SDS011;20941;42.408;25.634;2024-01-27T04:19:50;11.82;;;4.38;;
34711;SDS011;20941;42.408;25.634;2024-01-27T04:22:16;9.65;;;5.05;;
34711;SDS011;20941;42.408;25.634;2024-01-27T04:24:42;10.68;;;4.70;;
34711;SDS011;20941;42.408;25.634;2024-01-27T04:27:07;7.93;;;4.53;;
34711;SDS011;20941;42.408;25.634;2024-01-27T04:29:33;12.30;;;4.70;;
34711;SDS011;20941;42.408;25.634;2024-01-27T04:31:58;9.77;;;4.50;;
34711;SDS011;20941;42.408;25.634;2024-01-27T04:34:23;8.88;;;3.97;;
34711;SDS011;20941;42.408;25.634;2024-01-27T04:36:49;8.38;;;3.58;;
34711;SDS011;20941;42.408;25.634;2024-01-27T04:39:14;7.65;;;4.18;;
34711;SDS011;20941;42.408;25.634;2024-01-27T04:41:43;7.18;;;3.78;;
34711;SDS011;20941;42.408;25.634;2024-01-27T04:44:09;7.30;;;4.53;;
34711;SDS011;20941;42.408;25.634;2024-01-27T04:46:34;6.25;;;3.90;;
34711;SDS011;20941;42.408;25.634;2024-01-27T04:48:59;8.70;;;4.45;;
34711;SDS011;20941;42.408;25.634;2024-01-27T04:51:25;15.77;;;4.15;;
34711;SDS011;20941;42.408;25.634;2024-01-27T04:53:50;7.78;;;4.32;;
34711;SDS011;20941;42.408;25.634;2024-01-27T04:56:15;8.68;;;4.50;;
34711;SDS011;20941;42.408;25.634;2024-01-27T04:58:41;8.82;;;5.07;;
34711;SDS011;20941;42.408;25.634;2024-01-27T05:01:06;21.33;;;10.73;;
34711;SDS011;20941;42.408;25.634;2024-01-27T05:03:32;19.67;;;11.52;;
34711;SDS011;20941;42.408;25.634;2024-01-27T05:05:57;21.13;;;14.15;;
34711;SDS011;20941;42.408;25.634;2024-01-27T05:08:22;19.48;;;12.68;;
34711;SDS011;20941;42.408;25.634;2024-01-27T05:10:48;19.55;;;11.18;;
34711;SDS011;20941;42.408;25.634;2024-01-27T05:13:13;19.85;;;10.52;;
34711;SDS011;20941;42.408;25.634;2024-01-27T05:15:39;15.60;;;9.80;;
34711;SDS011;20941;42.408;25.634;2024-01-27T05:18:04;19.17;;;10.70;;
34711;SDS011;20941;42.408;25.634;2024-01-27T05:20:29;21.90;;;10.07;;
34711;SDS011;20941;42.408;25.634;2024-01-27T05:22:55;25.70;;;11.55;;
34711;SDS011;20941;42.408;25.634;2024-01-27T05:25:20;16.80;;;9.77;;
34711;SDS011;20941;42.408;25.634;2024-01-27T05:27:46;17.98;;;9.27;;
34711;SDS011;20941;42.408;25.634;2024-01-27T05:30:11;19.95;;;10.65;;
34711;SDS011;20941;42.408;25.634;2024-01-27T05:32:37;30.20;;;10.93;;
34711;SDS011;20941;42.408;25.634;2024-01-27T05:35:02;17.10;;;8.77;;
34711;SDS011;20941;42.408;25.634;2024-01-27T05:37:28;26.40;;;9.68;;
34711;SDS011;20941;42.408;25.634;2024-01-27T05:39:54;33.20;;;12.38;;
34711;SDS011;20941;42.408;25.634;2024-01-27T05:42:19;20.63;;;11.55;;
34711;SDS011;20941;42.408;25.634;2024-01-27T05:44:44;37.45;;;15.95;;
34711;SDS011;20941;42.408;25.634;2024-01-27T05:47:10;26.33;;;13.82;;
34711;SDS011;20941;42.408;25.634;2024-01-27T05:49:36;44.78;;;21.15;;
34711;SDS011;20941;42.408;25.634;2024-01-27T05:52:01;53.83;;;29.67;;
34711;SDS011;20941;42.408;25.634;2024-01-27T05:54:27;98.25;;;54.42;;
34711;SDS011;20941;42.408;25.634;2024-01-27T05:56:52;99.22;;;56.00;;
34711;SDS011;20941;42.408;25.634;2024-01-27T05:59:17;91.47;;;53.78;;
34711;SDS011;20941;42.408;25.634;2024-01-27T06:01:43;96.65;;;54.85;;
34711;SDS011;20941;42.408;25.634;2024-01-27T06:04:10;45.63;;;26.05;;
34711;SDS011;20941;42.408;25.634;2024-01-27T06:06:40;30.40;;;15.38;;
34711;SDS011;20941;42.408;25.634;2024-01-27T06:09:07;54.63;;;21.83;;
34711;SDS011;20941;42.408;25.634;2024-01-27T06:11:36;60.92;;;26.25;;
34711;SDS011;20941;42.408;25.634;2024-01-27T06:14:01;57.88;;;24.58;;
34711;SDS011;20941;42.408;25.634;2024-01-27T06:16:26;56.20;;;23.90;;
34711;SDS011;20941;42.408;25.634;2024-01-27T06:18:52;44.70;;;19.83;;
34711;SDS011;20941;42.408;25.634;2024-01-27T06:21:19;28.40;;;12.95;;
34711;SDS011;20941;42.408;25.634;2024-01-27T06:23:45;46.20;;;16.45;;
34711;SDS011;20941;42.408;25.634;2024-01-27T06:26:12;30.75;;;13.70;;
34711;SDS011;20941;42.408;25.634;2024-01-27T06:28:38;32.22;;;13.73;;
34711;SDS011;20941;42.408;25.634;2024-01-27T06:31:03;52.35;;;24.75;;
34711;SDS011;20941;42.408;25.634;2024-01-27T06:33:29;28.55;;;15.82;;
34711;SDS011;20941;42.408;25.634;2024-01-27T06:35:55;35.72;;;16.40;;
34711;SDS011;20941;42.408;25.634;2024-01-27T06:38:20;44.10;;;22.05;;
34711;SDS011;20941;42.408;25.634;2024-01-27T06:40:46;55.67;;;26.77;;
34711;SDS011;20941;42.408;25.634;2024-01-27T06:43:12;60.90;;;28.30;;
34711;SDS011;20941;42.408;25.634;2024-01-27T06:45:38;54.92;;;27.42;;
34711;SDS011;20941;42.408;25.634;2024-01-27T06:48:04;67.50;;;32.20;;
34711;SDS011;20941;42.408;25.634;2024-01-27T06:50:30;73.50;;;32.47;;
34711;SDS011;20941;42.408;25.634;2024-01-27T06:52:55;70.75;;;32.40;;
34711;SDS011;20941;42.408;25.634;2024-01-27T06:55:21;56.75;;;30.25;;
34711;SDS011;20941;42.408;25.634;2024-01-27T06:57:46;57.85;;;26.33;;
34711;SDS011;20941;42.408;25.634;2024-01-27T07:00:12;39.25;;;22.40;;
34711;SDS011;20941;42.408;25.634;2024-01-27T07:02:39;45.17;;;21.05;;
34711;SDS011;20941;42.408;25.634;2024-01-27T07:05:05;38.13;;;19.58;;
34711;SDS011;20941;42.408;25.634;2024-01-27T07:07:30;41.47;;;19.80;;
34711;SDS011;20941;42.408;25.634;2024-01-27T07:09:58;41.72;;;20.48;;
34711;SDS011;20941;42.408;25.634;2024-01-27T07:12:24;30.38;;;16.10;;
34711;SDS011;20941;42.408;25.634;2024-01-27T07:14:50;41.00;;;19.65;;
34711;SDS011;20941;42.408;25.634;2024-01-27T07:17:20;48.85;;;23.90;;
34711;SDS011;20941;42.408;25.634;2024-01-27T07:19:45;54.95;;;24.98;;
34711;SDS011;20941;42.408;25.634;2024-01-27T07:22:10;53.92;;;25.35;;
34711;SDS011;20941;42.408;25.634;2024-01-27T07:24:36;62.20;;;31.27;;
34711;SDS011;20941;42.408;25.634;2024-01-27T07:27:02;66.30;;;29.58;;
34711;SDS011;20941;42.408;25.634;2024-01-27T07:29:28;61.05;;;25.65;;
34711;SDS011;20941;42.408;25.634;2024-01-27T07:31:53;50.13;;;23.45;;
34711;SDS011;20941;42.408;25.634;2024-01-27T07:34:19;53.40;;;21.08;;
34711;SDS011;20941;42.408;25.634;2024-01-27T07:36:44;46.33;;;20.73;;
34711;SDS011;20941;42.408;25.634;2024-01-27T07:39:10;45.30;;;20.20;;
34711;SDS011;20941;42.408;25.634;2024-01-27T07:41:36;43.72;;;22.88;;
34711;SDS011;20941;42.408;25.634;2024-01-27T07:44:08;45.45;;;20.15;;
34711;SDS011;20941;42.408;25.634;2024-01-27T07:46:34;47.92;;;20.35;;
34711;SDS011;20941;42.408;25.634;2024-01-27T07:48:59;51.33;;;20.77;;
34711;SDS011;20941;42.408;25.634;2024-01-27T07:51:25;46.25;;;18.98;;
34711;SDS011;20941;42.408;25.634;2024-01-27T07:53:50;41.15;;;17.08;;
34711;SDS011;20941;42.408;25.634;2024-01-27T07:56:16;37.58;;;16.20;;
34711;SDS011;20941;42.408;25.634;2024-01-27T07:58:42;38.17;;;16.73;;
34711;SDS011;20941;42.408;25.634;2024-01-27T08:01:07;32.95;;;13.18;;
34711;SDS011;20941;42.408;25.634;2024-01-27T08:03:32;33.03;;;13.27;;
34711;SDS011;20941;42.408;25.634;2024-01-27T08:05:58;42.70;;;12.93;;
34711;SDS011;20941;42.408;25.634;2024-01-27T08:08:26;31.58;;;11.98;;
34711;SDS011;20941;42.408;25.634;2024-01-27T08:10:52;32.20;;;12.57;;
34711;SDS011;20941;42.408;25.634;2024-01-27T08:13:17;31.13;;;13.13;;
34711;SDS011;20941;42.408;25.634;2024-01-27T08:15:43;37.25;;;15.27;;
34711;SDS011;20941;42.408;25.634;2024-01-27T08:18:08;36.03;;;14.35;;
34711;SDS011;20941;42.408;25.634;2024-01-27T08:20:34;32.75;;;15.80;;
34711;SDS011;20941;42.408;25.634;2024-01-27T08:22:59;32.67;;;15.05;;
34711;SDS011;20941;42.408;25.634;2024-01-27T08:25:24;36.95;;;14.27;;
34711;SDS011;20941;42.408;25.634;2024-01-27T08:27:50;41.72;;;14.23;;
34711;SDS011;20941;42.408;25.634;2024-01-27T08:30:15;30.30;;;13.10;;
34711;SDS011;20941;42.408;25.634;2024-01-27T08:32:41;22.95;;;10.95;;
34711;SDS011;20941;42.408;25.634;2024-01-27T08:35:06;18.52;;;9.68;;
34711;SDS011;20941;42.408;25.634;2024-01-27T08:37:32;19.45;;;9.00;;
34711;SDS011;20941;42.408;25.634;2024-01-27T08:40:03;21.38;;;9.05;;
34711;SDS011;20941;42.408;25.634;2024-01-27T08:42:29;22.27;;;11.48;;
34711;SDS011;20941;42.408;25.634;2024-01-27T08:44:54;25.73;;;12.15;;
34711;SDS011;20941;42.408;25.634;2024-01-27T08:47:20;22.38;;;9.60;;
34711;SDS011;20941;42.408;25.634;2024-01-27T08:49:46;21.83;;;10.07;;
34711;SDS011;20941;42.408;25.634;2024-01-27T08:52:12;31.90;;;11.52;;
34711;SDS011;20941;42.408;25.634;2024-01-27T08:54:37;17.35;;;9.25;;
34711;SDS011;20941;42.408;25.634;2024-01-27T08:57:03;29.67;;;11.48;;
34711;SDS011;20941;42.408;25.634;2024-01-27T08:59:28;28.85;;;10.55;;
34711;SDS011;20941;42.408;25.634;2024-01-27T09:01:54;36.70;;;13.63;;
34711;SDS011;20941;42.408;25.634;2024-01-27T09:04:19;25.65;;;13.85;;
34711;SDS011;20941;42.408;25.634;2024-01-27T09:06:44;25.63;;;12.25;;
34711;SDS011;20941;42.408;25.634;2024-01-27T09:09:10;25.70;;;12.43;;
34711;SDS011;20941;42.408;25.634;2024-01-27T09:11:37;27.75;;;13.65;;
34711;SDS011;20941;42.408;25.634;2024-01-27T09:14:02;32.70;;;20.08;;
34711;SDS011;20941;42.408;25.634;2024-01-27T09:16:30;42.55;;;23.20;;
34711;SDS011;20941;42.408;25.634;2024-01-27T09:18:55;40.10;;;22.95;;
34711;SDS011;20941;42.408;25.634;2024-01-27T09:21:21;37.28;;;20.92;;
34711;SDS011;20941;42.408;25.634;2024-01-27T09:23:53;38.42;;;23.52;;
34711;SDS011;20941;42.408;25.634;2024-01-27T09:26:18;39.03;;;22.05;;
34711;SDS011;20941;42.408;25.634;2024-01-27T09:28:44;38.03;;;21.75;;
34711;SDS011;20941;42.408;25.634;2024-01-27T09:31:11;34.20;;;19.92;;
34711;SDS011;20941;42.408;25.634;2024-01-27T09:33:36;35.55;;;20.48;;
34711;SDS011;20941;42.408;25.634;2024-01-27T09:36:02;33.53;;;19.25;;
34711;SDS011;20941;42.408;25.634;2024-01-27T09:38:28;35.35;;;18.90;;
34711;SDS011;20941;42.408;25.634;2024-01-27T09:40:53;30.15;;;18.65;;
34711;SDS011;20941;42.408;25.634;2024-01-27T09:43:18;33.17;;;16.60;;
34711;SDS011;20941;42.408;25.634;2024-01-27T09:45:44;32.22;;;16.40;;
34711;SDS011;20941;42.408;25.634;2024-01-27T09:48:10;31.10;;;13.07;;
34711;SDS011;20941;42.408;25.634;2024-01-27T09:50:37;38.17;;;14.98;;
34711;SDS011;20941;42.408;25.634;2024-01-27T09:53:04;24.20;;;12.55;;
34711;SDS011;20941;42.408;25.634;2024-01-27T09:55:33;19.20;;;10.18;;
34711;SDS011;20941;42.408;25.634;2024-01-27T09:57:58;29.88;;;11.23;;
34711;SDS011;20941;42.408;25.634;2024-01-27T10:00:25;25.20;;;11.32;;
34711;SDS011;20941;42.408;25.634;2024-01-27T10:02:51;30.27;;;9.35;;
34711;SDS011;20941;42.408;25.634;2024-01-27T10:05:16;21.73;;;9.13;;
34711;SDS011;20941;42.408;25.634;2024-01-27T10:07:43;20.40;;;7.40;;
34711;SDS011;20941;42.408;25.634;2024-01-27T10:10:08;19.73;;;7.22;;
34711;SDS011;20941;42.408;25.634;2024-01-27T10:12:35;11.10;;;5.97;;
34711;SDS011;20941;42.408;25.634;2024-01-27T10:15:04;16.75;;;6.40;;
34711;SDS011;20941;42.408;25.634;2024-01-27T10:17:29;14.05;;;6.47;;
34711;SDS011;20941;42.408;25.634;2024-01-27T10:20:03;14.15;;;5.90;;
34711;SDS011;20941;42.408;25.634;2024-01-27T10:22:39;12.75;;;5.40;;
34711;SDS011;20941;42.408;25.634;2024-01-27T10:27:29;9.40;;;6.13;;
34711;SDS011;20941;42.408;25.634;2024-01-27T10:29:55;16.42;;;6.90;;
34711;SDS011;20941;42.408;25.634;2024-01-27T10:32:21;14.90;;;9.27;;
34711;SDS011;20941;42.408;25.634;2024-01-27T10:34:49;15.75;;;7.97;;
34711;SDS011;20941;42.408;25.634;2024-01-27T10:37:16;18.52;;;8.98;;
34711;SDS011;20941;42.408;25.634;2024-01-27T10:39:42;29.17;;;9.38;;
34711;SDS011;20941;42.408;25.634;2024-01-27T10:42:07;19.00;;;9.32;;
34711;SDS011;20941;42.408;25.634;2024-01-27T10:44:34;19.58;;;8.38;;
34711;SDS011;20941;42.408;25.634;2024-01-27T10:47:01;16.77;;;8.93;;
34711;SDS011;20941;42.408;25.634;2024-01-27T10:49:27;23.88;;;9.60;;
34711;SDS011;20941;42.408;25.634;2024-01-27T10:51:54;21.45;;;10.00;;
34711;SDS011;20941;42.408;25.634;2024-01-27T10:54:24;18.23;;;10.48;;
34711;SDS011;20941;42.408;25.634;2024-01-27T10:56:51;23.58;;;9.77;;
34711;SDS011;20941;42.408;25.634;2024-01-27T10:59:18;25.25;;;11.30;;
34711;SDS011;20941;42.408;25.634;2024-01-27T11:01:44;15.68;;;8.55;;
34711;SDS011;20941;42.408;25.634;2024-01-27T11:04:10;21.00;;;9.23;;
34711;SDS011;20941;42.408;25.634;2024-01-27T11:06:36;21.50;;;9.70;;
34711;SDS011;20941;42.408;25.634;2024-01-27T11:09:02;18.45;;;8.55;;
34711;SDS011;20941;42.408;25.634;2024-01-27T11:11:29;24.85;;;8.15;;
34711;SDS011;20941;42.408;25.634;2024-01-27T11:13:55;30.75;;;8.88;;
34711;SDS011;20941;42.408;25.634;2024-01-27T11:16:20;19.13;;;8.45;;
34711;SDS011;20941;42.408;25.634;2024-01-27T11:18:47;20.38;;;8.88;;
34711;SDS011;20941;42.408;25.634;2024-01-27T11:21:14;19.15;;;8.77;;
34711;SDS011;20941;42.408;25.634;2024-01-27T11:23:41;26.58;;;8.68;;
34711;SDS011;20941;42.408;25.634;2024-01-27T11:26:06;17.55;;;8.77;;
34711;SDS011;20941;42.408;25.634;2024-01-27T11:28:32;16.10;;;8.55;;
34711;SDS011;20941;42.408;25.634;2024-01-27T11:30:57;17.70;;;9.00;;
34711;SDS011;20941;42.408;25.634;2024-01-27T11:33:26;19.95;;;9.25;;
34711;SDS011;20941;42.408;25.634;2024-01-27T11:36:03;19.63;;;8.70;;
34711;SDS011;20941;42.408;25.634;2024-01-27T11:38:30;20.13;;;9.00;;
34711;SDS011;20941;42.408;25.634;2024-01-27T11:40:55;16.77;;;8.68;;
34711;SDS011;20941;42.408;25.634;2024-01-27T11:43:21;21.50;;;9.18;;
34711;SDS011;20941;42.408;25.634;2024-01-27T11:45:58;21.38;;;8.45;;
34711;SDS011;20941;42.408;25.634;2024-01-27T11:48:24;13.02;;;8.05;;
34711;SDS011;20941;42.408;25.634;2024-01-27T11:51:06;11.35;;;7.75;;
34711;SDS011;20941;42.408;25.634;2024-01-27T11:53:33;16.35;;;8.82;;
34711;SDS011;20941;42.408;25.634;2024-01-27T11:55:58;17.63;;;8.73;;
34711;SDS011;20941;42.408;25.634;2024-01-27T11:58:25;19.42;;;9.27;;
34711;SDS011;20941;42.408;25.634;2024-01-27T12:00:51;22.08;;;11.50;;
34711;SDS011;20941;42.408;25.634;2024-01-27T12:03:17;20.98;;;11.30;;
34711;SDS011;20941;42.408;25.634;2024-01-27T12:05:42;16.98;;;8.90;;
34711;SDS011;20941;42.408;25.634;2024-01-27T12:08:08;16.08;;;8.30;;
34711;SDS011;20941;42.408;25.634;2024-01-27T12:10:34;18.50;;;9.45;;
34711;SDS011;20941;42.408;25.634;2024-01-27T12:13:00;19.33;;;10.50;;
34711;SDS011;20941;42.408;25.634;2024-01-27T12:15:25;21.33;;;11.00;;
34711;SDS011;20941;42.408;25.634;2024-01-27T12:17:51;31.15;;;13.57;;
34711;SDS011;20941;42.408;25.634;2024-01-27T12:20:17;23.17;;;14.60;;
34711;SDS011;20941;42.408;25.634;2024-01-27T12:22:42;35.13;;;17.67;;
34711;SDS011;20941;42.408;25.634;2024-01-27T12:25:09;34.63;;;17.83;;
34711;SDS011;20941;42.408;25.634;2024-01-27T12:27:35;40.67;;;17.00;;
34711;SDS011;20941;42.408;25.634;2024-01-27T12:30:00;28.13;;;14.80;;
34711;SDS011;20941;42.408;25.634;2024-01-27T12:32:26;29.30;;;15.00;;
34711;SDS011;20941;42.408;25.634;2024-01-27T12:34:52;32.97;;;15.02;;
34711;SDS011;20941;42.408;25.634;2024-01-27T12:37:17;30.00;;;15.63;;
34711;SDS011;20941;42.408;25.634;2024-01-27T12:39:43;30.83;;;16.27;;
34711;SDS011;20941;42.408;25.634;2024-01-27T12:42:12;27.25;;;14.35;;
34711;SDS011;20941;42.408;25.634;2024-01-27T12:44:38;30.80;;;15.57;;
34711;SDS011;20941;42.408;25.634;2024-01-27T12:47:04;25.63;;;13.82;;
34711;SDS011;20941;42.408;25.634;2024-01-27T12:49:29;25.45;;;14.35;;
34711;SDS011;20941;42.408;25.634;2024-01-27T12:51:55;27.42;;;12.93;;
34711;SDS011;20941;42.408;25.634;2024-01-27T12:54:21;41.38;;;16.50;;
34711;SDS011;20941;42.408;25.634;2024-01-27T12:56:46;29.77;;;16.48;;
34711;SDS011;20941;42.408;25.634;2024-01-27T12:59:11;21.95;;;10.05;;
34711;SDS011;20941;42.408;25.634;2024-01-27T13:01:39;14.52;;;5.35;;
34711;SDS011;20941;42.408;25.634;2024-01-27T13:04:04;4.13;;;2.15;;
34711;SDS011;20941;42.408;25.634;2024-01-27T13:06:30;2.88;;;1.73;;
34711;SDS011;20941;42.408;25.634;2024-01-27T13:08:58;5.18;;;1.20;;
34711;SDS011;20941;42.408;25.634;2024-01-27T13:11:23;2.03;;;0.98;;
34711;SDS011;20941;42.408;25.634;2024-01-27T13:13:49;0.77;;;0.77;;
34711;SDS011;20941;42.408;25.634;2024-01-27T13:16:15;3.30;;;0.90;;
34711;SDS011;20941;42.408;25.634;2024-01-27T13:18:40;0.50;;;0.50;;
34711;SDS011;20941;42.408;25.634;2024-01-27T13:21:05;2.28;;;1.08;;
34711;SDS011;20941;42.408;25.634;2024-01-27T13:23:31;2.35;;;0.80;;
34711;SDS011;20941;42.408;25.634;2024-01-27T13:25:57;0.40;;;0.40;;
34711;SDS011;20941;42.408;25.634;2024-01-27T13:28:22;2.58;;;1.10;;
34711;SDS011;20941;42.408;25.634;2024-01-27T13:30:47;0.88;;;0.63;;
34711;SDS011;20941;42.408;25.634;2024-01-27T13:33:13;0.95;;;0.80;;
34711;SDS011;20941;42.408;25.634;2024-01-27T13:35:39;0.70;;;0.70;;
34711;SDS011;20941;42.408;25.634;2024-01-27T13:38:13;1.52;;;1.05;;
34711;SDS011;20941;42.408;25.634;2024-01-27T13:40:39;1.88;;;1.50;;
34711;SDS011;20941;42.408;25.634;2024-01-27T13:43:04;1.30;;;1.10;;
34711;SDS011;20941;42.408;25.634;2024-01-27T13:45:30;2.33;;;1.33;;
34711;SDS011;20941;42.408;25.634;2024-01-27T13:47:56;2.65;;;1.20;;
34711;SDS011;20941;42.408;25.634;2024-01-27T13:50:21;2.67;;;1.33;;
34711;SDS011;20941;42.408;25.634;2024-01-27T13:52:47;1.25;;;1.08;;
34711;SDS011;20941;42.408;25.634;2024-01-27T13:55:13;3.30;;;1.90;;
34711;SDS011;20941;42.408;25.634;2024-01-27T13:57:39;2.00;;;1.35;;
34711;SDS011;20941;42.408;25.634;2024-01-27T14:00:05;2.58;;;2.05;;
34711;SDS011;20941;42.408;25.634;2024-01-27T14:02:31;2.65;;;1.40;;
34711;SDS011;20941;42.408;25.634;2024-01-27T14:04:56;3.33;;;1.50;;
34711;SDS011;20941;42.408;25.634;2024-01-27T14:07:22;6.55;;;1.55;;
34711;SDS011;20941;42.408;25.634;2024-01-27T14:09:48;2.40;;;1.17;;
34711;SDS011;20941;42.408;25.634;2024-01-27T14:12:13;1.88;;;1.13;;
34711;SDS011;20941;42.408;25.634;2024-01-27T14:14:40;2.22;;;1.40;;